Time;durP1;ratioP1;P1;durP2;ratioP2;P2;SDS_P1;SDS_P2;PMS_P1;PMS_P2;Temp;Humidity;BMP_temperature;BMP_pressure;BME280_temperature;BME280_humidity;BME280_pressure;Samples;Min_cycle;Max_cycle;Signal;HPM_P1;HPM_P2
2023/01/24 00:00:54;;;;;;;44.65;16.70;;;;;;;;;;6132203;23;20017;-63
2023/01/24 00:03:22;;;;;;;42.75;15.85;;;;;;;;;;6153597;23;20144;-62
2023/01/24 00:05:51;;;;;;;41.60;17.00;;;;;;;;;;6143831;23;20017;-62
2023/01/24 00:08:22;;;;;;;43.38;17.73;;;;;;;;;;6160053;23;20017;-63
2023/01/24 00:10:50;;;;;;;40.22;16.90;;;;;;;;;;6154947;23;20052;-62
2023/01/24 00:13:18;;;;;;;41.83;15.63;;;;;;;;;;6157414;23;20021;-62
2023/01/24 00:15:46;;;;;;;39.03;15.20;;;;;;;;;;6152357;23;20016;-61
2023/01/24 00:18:13;;;;;;;40.37;14.97;;;;;;;;;;6158970;23;20012;-63
2023/01/24 00:20:41;;;;;;;42.58;15.10;;;;;;;;;;6140772;23;20021;-62
2023/01/24 00:23:10;;;;;;;35.45;15.75;;;;;;;;;;6162957;23;20020;-62
2023/01/24 00:25:38;;;;;;;38.75;14.35;;;;;;;;;;6147548;23;20091;-62
2023/01/24 00:28:05;;;;;;;33.45;14.30;;;;;;;;;;6152126;23;20048;-62
2023/01/24 00:30:33;;;;;;;41.77;15.17;;;;;;;;;;6146589;23;20718;-62
2023/01/24 00:33:01;;;;;;;40.03;16.02;;;;;;;;;;6155925;23;20013;-63
2023/01/24 00:35:29;;;;;;;33.88;13.30;;;;;;;;;;6147707;23;20467;-62
2023/01/24 00:37:57;;;;;;;36.47;15.95;;;;;;;;;;6158176;23;20013;-62
2023/01/24 00:40:34;;;;;;;36.28;14.43;;;;;;;;;;6150766;23;20035;-62
2023/01/24 00:43:01;;;;;;;39.80;15.17;;;;;;;;;;6139614;23;20013;-62
2023/01/24 00:45:29;;;;;;;35.65;15.00;;;;;;;;;;6159581;23;20043;-63
2023/01/24 00:47:57;;;;;;;36.67;14.13;;;;;;;;;;6150902;23;20075;-62
2023/01/24 00:50:25;;;;;;;34.03;14.35;;;;;;;;;;6158574;23;20024;-61
2023/01/24 00:52:54;;;;;;;33.30;14.30;;;;;;;;;;6149965;23;20497;-62
2023/01/24 00:55:22;;;;;;;35.10;13.37;;;;;;;;;;6162974;23;20024;-63
2023/01/24 00:57:51;;;;;;;34.10;13.90;;;;;;;;;;6148485;23;20013;-62
2023/01/24 01:00:19;;;;;;;33.75;13.70;;;;;;;;;;6160554;23;20017;-62
2023/01/24 01:02:47;;;;;;;32.08;13.43;;;;;;;;;;6132922;23;20099;-61
2023/01/24 01:05:15;;;;;;;35.95;14.50;;;;;;;;;;6158241;23;20084;-63
2023/01/24 01:07:43;;;;;;;31.80;13.43;;;;;;;;;;6149551;23;20501;-62
2023/01/24 01:10:11;;;;;;;31.90;13.50;;;;;;;;;;6141887;23;20068;-62
2023/01/24 01:12:39;;;;;;;35.78;14.15;;;;;;;;;;6144489;23;20276;-62
2023/01/24 01:15:08;;;;;;;30.35;12.38;;;;;;;;;;6159292;23;20205;-62
2023/01/24 01:17:36;;;;;;;31.75;13.05;;;;;;;;;;6147023;23;20104;-62
2023/01/24 01:20:05;;;;;;;34.27;13.10;;;;;;;;;;6160049;23;20579;-62
2023/01/24 01:22:32;;;;;;;35.22;13.60;;;;;;;;;;6154436;23;20009;-62
2023/01/24 01:25:00;;;;;;;32.20;13.68;;;;;;;;;;6154269;23;20013;-62
2023/01/24 01:27:28;;;;;;;31.30;13.38;;;;;;;;;;6153688;23;20016;-62
2023/01/24 01:30:00;;;;;;;38.13;14.65;;;;;;;;;;6156137;23;20021;-63
2023/01/24 01:32:29;;;;;;;34.70;14.10;;;;;;;;;;6154337;23;20021;-62
2023/01/24 01:34:58;;;;;;;36.95;13.32;;;;;;;;;;6150034;23;20017;-62
2023/01/24 01:37:26;;;;;;;39.15;14.40;;;;;;;;;;6161123;23;20070;-62
2023/01/24 01:39:54;;;;;;;37.25;15.00;;;;;;;;;;6147805;23;20024;-61
2023/01/24 01:42:22;;;;;;;33.58;14.27;;;;;;;;;;6159687;23;20021;-63
2023/01/24 01:44:50;;;;;;;36.90;13.77;;;;;;;;;;6144855;23;20216;-63
2023/01/24 01:47:19;;;;;;;38.88;14.55;;;;;;;;;;6160267;23;20013;-63
2023/01/24 01:49:51;;;;;;;41.03;13.90;;;;;;;;;;6149686;23;20513;-63
2023/01/24 01:52:19;;;;;;;31.85;13.43;;;;;;;;;;6153971;23;20045;-65
2023/01/24 01:54:48;;;;;;;35.30;13.25;;;;;;;;;;6142198;23;20025;-64
2023/01/24 01:57:17;;;;;;;33.23;12.80;;;;;;;;;;6157176;23;20577;-64
2023/01/24 01:59:47;;;;;;;30.30;14.43;;;;;;;;;;6148064;23;20017;-64
2023/01/24 02:02:16;;;;;;;32.28;13.25;;;;;;;;;;6142183;23;20108;-65
2023/01/24 02:04:46;;;;;;;31.88;13.90;;;;;;;;;;6137239;23;20021;-66
2023/01/24 02:07:20;;;;;;;35.53;14.07;;;;;;;;;;6159408;23;20020;-65
2023/01/24 02:09:48;;;;;;;37.23;14.17;;;;;;;;;;6157470;23;20052;-65
2023/01/24 02:12:19;;;;;;;36.65;13.50;;;;;;;;;;6151302;23;20056;-66
2023/01/24 02:17:37;;;;;;;31.50;13.18;;;;;;;;;;6152157;23;20013;-67
2023/01/24 02:20:09;;;;;;;31.55;12.40;;;;;;;;;;6151752;23;20061;-68
2023/01/24 02:22:45;;;;;;;36.20;12.97;;;;;;;;;;6159796;23;20104;-68
2023/01/24 02:25:17;;;;;;;33.08;13.80;;;;;;;;;;6132553;23;20531;-68
2023/01/24 02:27:46;;;;;;;32.30;13.73;;;;;;;;;;6151192;23;20088;-69
2023/01/24 02:30:13;;;;;;;32.80;12.82;;;;;;;;;;6154908;23;20040;-70
2023/01/24 02:32:41;;;;;;;33.35;13.52;;;;;;;;;;6144141;23;20013;-69
2023/01/24 02:35:22;;;;;;;33.20;13.27;;;;;;;;;;6154069;23;20647;-71
2023/01/24 02:37:50;;;;;;;35.92;13.48;;;;;;;;;;6157725;23;20103;-70
2023/01/24 02:40:18;;;;;;;34.28;13.07;;;;;;;;;;6145272;23;20036;-70
2023/01/24 02:42:47;;;;;;;32.60;12.55;;;;;;;;;;6154326;23;20032;-71
2023/01/24 02:45:17;;;;;;;36.47;13.38;;;;;;;;;;6152015;23;20073;-72
2023/01/24 02:47:46;;;;;;;34.40;13.13;;;;;;;;;;6159430;23;20017;-70
2023/01/24 02:50:16;;;;;;;30.52;12.80;;;;;;;;;;6151698;23;20393;-72
2023/01/24 02:55:29;;;;;;;33.33;12.85;;;;;;;;;;6151039;23;20459;-73
2023/01/24 02:58:06;;;;;;;32.65;13.68;;;;;;;;;;6148429;23;20387;-72
2023/01/24 03:00:34;;;;;;;33.07;12.87;;;;;;;;;;6159548;23;20021;-72
2023/01/24 03:03:02;;;;;;;38.08;13.73;;;;;;;;;;6149777;23;20025;-72
2023/01/24 03:05:39;;;;;;;31.38;12.90;;;;;;;;;;6157009;23;20017;-72
2023/01/24 03:08:09;;;;;;;33.47;13.15;;;;;;;;;;6151795;23;20014;-72
2023/01/24 03:10:37;;;;;;;36.28;12.50;;;;;;;;;;6135763;23;20068;-71
2023/01/24 03:35:11;;;;;;;32.70;13.27;;;;;;;;;;6153515;23;20067;-71
2023/01/24 03:40:24;;;;;;;33.13;14.13;;;;;;;;;;6151277;23;20021;-70
2023/01/24 03:42:52;;;;;;;35.33;14.07;;;;;;;;;;6158115;23;20021;-71
2023/01/24 03:45:22;;;;;;;34.33;13.40;;;;;;;;;;6147986;23;20020;-71
2023/01/24 03:48:04;;;;;;;37.90;14.40;;;;;;;;;;6147945;23;20035;-70
2023/01/24 03:53:19;;;;;;;38.20;13.87;;;;;;;;;;6149284;23;20021;-70
2023/01/24 03:55:49;;;;;;;32.67;13.93;;;;;;;;;;6150260;23;20020;-70
2023/01/24 03:58:16;;;;;;;33.33;13.02;;;;;;;;;;6155910;23;20092;-70
2023/01/24 04:00:45;;;;;;;32.13;13.57;;;;;;;;;;6150444;23;20035;-69
2023/01/24 04:03:13;;;;;;;32.20;13.20;;;;;;;;;;6139640;23;20025;-69
2023/01/24 04:05:41;;;;;;;32.80;13.73;;;;;;;;;;6151791;23;20055;-69
2023/01/24 04:08:09;;;;;;;35.47;14.23;;;;;;;;;;6146339;23;20802;-67
2023/01/24 04:10:36;;;;;;;30.55;14.02;;;;;;;;;;6163606;23;20092;-68
2023/01/24 04:13:04;;;;;;;37.33;14.05;;;;;;;;;;6151381;23;20112;-68
2023/01/24 04:15:34;;;;;;;31.35;13.18;;;;;;;;;;6146650;23;20463;-68
2023/01/24 04:18:04;;;;;;;32.53;14.13;;;;;;;;;;6159700;23;20466;-68
2023/01/24 04:20:32;;;;;;;33.72;14.07;;;;;;;;;;6155924;23;20044;-68
2023/01/24 04:23:01;;;;;;;34.45;14.00;;;;;;;;;;6152342;23;20072;-68
2023/01/24 04:25:29;;;;;;;31.25;12.52;;;;;;;;;;6160817;23;20017;-67
2023/01/24 04:27:57;;;;;;;37.00;13.23;;;;;;;;;;6144675;23;20021;-68
2023/01/24 04:30:24;;;;;;;35.07;14.40;;;;;;;;;;6155826;23;20566;-68
2023/01/24 04:32:53;;;;;;;33.53;13.30;;;;;;;;;;6130759;23;20128;-67
2023/01/24 04:35:23;;;;;;;29.77;12.48;;;;;;;;;;6157767;23;20394;-67
2023/01/24 04:37:51;;;;;;;34.05;14.10;;;;;;;;;;6157501;23;20466;-67
2023/01/24 04:40:22;;;;;;;33.33;13.55;;;;;;;;;;6149297;23;20274;-67
2023/01/24 04:42:50;;;;;;;33.87;13.87;;;;;;;;;;6153857;23;20120;-67
2023/01/24 04:45:18;;;;;;;32.97;14.07;;;;;;;;;;6156942;23;20013;-67
2023/01/24 04:47:45;;;;;;;33.72;13.05;;;;;;;;;;6159656;23;20067;-67
2023/01/24 04:50:13;;;;;;;28.48;12.48;;;;;;;;;;6155521;23;20023;-67
2023/01/24 04:52:42;;;;;;;33.60;13.35;;;;;;;;;;6148722;23;20025;-67
2023/01/24 04:55:10;;;;;;;30.83;13.53;;;;;;;;;;6159195;23;20258;-67
2023/01/24 04:57:37;;;;;;;31.08;12.52;;;;;;;;;;6152174;23;20036;-67
2023/01/24 05:00:07;;;;;;;31.80;13.40;;;;;;;;;;6156723;23;20013;-67
2023/01/24 05:02:37;;;;;;;34.80;13.05;;;;;;;;;;6158379;23;20060;-67
2023/01/24 05:05:05;;;;;;;36.80;13.80;;;;;;;;;;6151496;23;20021;-67
2023/01/24 05:07:38;;;;;;;31.47;12.53;;;;;;;;;;6163233;23;20393;-67
2023/01/24 05:10:08;;;;;;;32.38;13.35;;;;;;;;;;6152641;23;20041;-66
2023/01/24 05:12:36;;;;;;;31.08;12.98;;;;;;;;;;6154381;23;20420;-66
2023/01/24 05:15:03;;;;;;;29.65;12.15;;;;;;;;;;6160451;23;20017;-67
2023/01/24 05:17:31;;;;;;;30.45;14.10;;;;;;;;;;6148186;23;20101;-66
2023/01/24 05:19:59;;;;;;;33.13;13.90;;;;;;;;;;6159902;23;20071;-68
2023/01/24 05:22:26;;;;;;;35.75;14.48;;;;;;;;;;6147735;23;20495;-67
2023/01/24 05:24:54;;;;;;;33.00;12.73;;;;;;;;;;6156070;23;20083;-67
2023/01/24 05:27:23;;;;;;;33.47;12.43;;;;;;;;;;6150278;23;20044;-67
2023/01/24 05:29:51;;;;;;;33.90;13.07;;;;;;;;;;6157080;23;20087;-67
2023/01/24 05:32:18;;;;;;;31.77;12.53;;;;;;;;;;6153466;23;20100;-67
2023/01/24 05:34:46;;;;;;;33.83;13.90;;;;;;;;;;6156154;23;20017;-67
2023/01/24 05:37:15;;;;;;;34.25;13.18;;;;;;;;;;6157217;23;20021;-66
2023/01/24 05:39:43;;;;;;;32.00;12.98;;;;;;;;;;6150475;23;20009;-67
2023/01/24 05:42:10;;;;;;;30.80;13.32;;;;;;;;;;6157081;23;20104;-66
2023/01/24 05:44:39;;;;;;;36.37;13.40;;;;;;;;;;6155270;23;20019;-66
2023/01/24 05:47:07;;;;;;;34.38;12.98;;;;;;;;;;6150745;23;20073;-67
2023/01/24 05:49:35;;;;;;;33.38;13.13;;;;;;;;;;6152420;23;20017;-67
2023/01/24 05:52:03;;;;;;;38.83;14.85;;;;;;;;;;6153651;23;20013;-66
2023/01/24 05:54:30;;;;;;;35.90;13.50;;;;;;;;;;6148891;23;20029;-66
2023/01/24 05:56:58;;;;;;;33.37;13.73;;;;;;;;;;6157320;23;20041;-66
2023/01/24 05:59:26;;;;;;;35.65;14.05;;;;;;;;;;6156253;23;20044;-66
2023/01/24 06:01:55;;;;;;;32.95;13.77;;;;;;;;;;6152927;23;20052;-66
2023/01/24 06:04:24;;;;;;;41.45;14.93;;;;;;;;;;6154103;23;20109;-66
2023/01/24 06:06:52;;;;;;;38.60;14.88;;;;;;;;;;6158663;23;20025;-65
2023/01/24 06:09:20;;;;;;;41.67;15.13;;;;;;;;;;6151742;23;20025;-66
2023/01/24 06:11:48;;;;;;;37.95;14.98;;;;;;;;;;6161758;23;20025;-65
2023/01/24 06:14:16;;;;;;;36.22;14.18;;;;;;;;;;6147215;23;20276;-65
2023/01/24 06:16:44;;;;;;;35.53;13.75;;;;;;;;;;6154025;23;20392;-66
2023/01/24 06:19:17;;;;;;;36.92;14.10;;;;;;;;;;6155403;23;20024;-66
2023/01/24 06:21:46;;;;;;;34.20;13.87;;;;;;;;;;6149553;23;20368;-66
2023/01/24 06:24:16;;;;;;;39.78;14.15;;;;;;;;;;6158169;23;20092;-66
2023/01/24 06:26:44;;;;;;;32.58;13.30;;;;;;;;;;6147538;23;20127;-66
2023/01/24 06:29:13;;;;;;;33.15;13.10;;;;;;;;;;6157755;23;20009;-66
2023/01/24 06:31:47;;;;;;;36.15;13.88;;;;;;;;;;6143360;23;20027;-65
2023/01/24 06:34:22;;;;;;;34.83;13.97;;;;;;;;;;6157846;23;20076;-65
2023/01/24 06:36:55;;;;;;;33.42;13.32;;;;;;;;;;6151438;23;20020;-65
2023/01/24 06:39:23;;;;;;;34.58;14.05;;;;;;;;;;6157696;23;20031;-66
2023/01/24 06:41:51;;;;;;;34.85;14.10;;;;;;;;;;6142766;23;20017;-65
2023/01/24 06:44:19;;;;;;;28.40;12.48;;;;;;;;;;6158575;23;20020;-65
2023/01/24 06:46:47;;;;;;;31.80;13.07;;;;;;;;;;6146622;23;20045;-65
2023/01/24 06:49:15;;;;;;;32.22;13.07;;;;;;;;;;6157645;23;20063;-65
2023/01/24 06:51:49;;;;;;;31.73;11.95;;;;;;;;;;6136642;23;20855;-65
2023/01/24 06:54:17;;;;;;;31.05;12.98;;;;;;;;;;6156860;23;20403;-66
2023/01/24 06:56:44;;;;;;;35.55;12.95;;;;;;;;;;6139374;23;20013;-65
2023/01/24 06:59:12;;;;;;;32.63;12.77;;;;;;;;;;6156138;23;20016;-65
2023/01/24 07:01:40;;;;;;;35.92;14.27;;;;;;;;;;6144630;23;20013;-64
2023/01/24 07:04:08;;;;;;;35.85;13.30;;;;;;;;;;6156613;23;20105;-65
2023/01/24 07:06:35;;;;;;;31.02;11.68;;;;;;;;;;6149253;23;20068;-65
2023/01/24 07:09:05;;;;;;;33.05;13.88;;;;;;;;;;6157297;23;20044;-65
2023/01/24 07:11:33;;;;;;;37.37;14.73;;;;;;;;;;6160254;23;20448;-65
2023/01/24 07:14:00;;;;;;;34.78;14.95;;;;;;;;;;6145442;23;20490;-65
2023/01/24 07:16:29;;;;;;;36.58;14.05;;;;;;;;;;6158816;23;20440;-65
2023/01/24 07:18:56;;;;;;;43.45;15.32;;;;;;;;;;6152004;23;20407;-65
2023/01/24 07:21:26;;;;;;;37.83;14.65;;;;;;;;;;6149589;23;20512;-65
2023/01/24 07:23:56;;;;;;;42.37;15.07;;;;;;;;;;6153195;23;20021;-65
2023/01/24 07:26:25;;;;;;;38.13;14.80;;;;;;;;;;6155526;23;20447;-65
2023/01/24 07:28:53;;;;;;;36.67;14.00;;;;;;;;;;6157226;23;20515;-65
2023/01/24 07:31:21;;;;;;;38.70;15.30;;;;;;;;;;6154073;23;20096;-64
2023/01/24 07:33:49;;;;;;;36.13;14.13;;;;;;;;;;6147266;23;20335;-63
2023/01/24 07:36:17;;;;;;;38.10;14.37;;;;;;;;;;6154703;23;20020;-65
2023/01/24 07:38:44;;;;;;;39.78;15.38;;;;;;;;;;6151466;23;20064;-65
2023/01/24 07:41:12;;;;;;;37.08;14.93;;;;;;;;;;6149417;23;20047;-65
2023/01/24 07:43:41;;;;;;;36.90;14.98;;;;;;;;;;6151303;23;20108;-65
2023/01/24 07:46:09;;;;;;;42.53;15.43;;;;;;;;;;6157385;23;20017;-64
2023/01/24 07:48:37;;;;;;;35.00;14.50;;;;;;;;;;6147655;23;20013;-65
2023/01/24 07:51:04;;;;;;;42.22;14.52;;;;;;;;;;6158887;23;20075;-65
2023/01/24 07:53:32;;;;;;;37.30;14.20;;;;;;;;;;6143248;23;20163;-65
2023/01/24 07:56:00;;;;;;;38.35;14.75;;;;;;;;;;6161602;23;20013;-65
2023/01/24 07:58:29;;;;;;;41.70;15.25;;;;;;;;;;6147888;23;20356;-58
2023/01/24 08:01:00;;;;;;;44.70;15.43;;;;;;;;;;6154083;23;20013;-65
2023/01/24 08:03:29;;;;;;;39.25;15.23;;;;;;;;;;6153790;23;20029;-63
2023/01/24 08:05:56;;;;;;;36.97;14.88;;;;;;;;;;6149361;23;20455;-65
2023/01/24 08:08:24;;;;;;;38.08;15.18;;;;;;;;;;6162088;23;20080;-65
2023/01/24 08:10:52;;;;;;;38.10;14.90;;;;;;;;;;6146159;23;20080;-65
2023/01/24 08:13:19;;;;;;;35.30;15.83;;;;;;;;;;6152844;23;20017;-64
2023/01/24 08:15:47;;;;;;;37.33;15.63;;;;;;;;;;6151312;23;20390;-64
2023/01/24 08:18:17;;;;;;;39.80;15.13;;;;;;;;;;6160383;23;20384;-64
2023/01/24 08:20:45;;;;;;;40.28;14.80;;;;;;;;;;6151721;23;20021;-64
2023/01/24 08:23:13;;;;;;;38.92;14.35;;;;;;;;;;6157353;23;20045;-64
2023/01/24 08:25:40;;;;;;;35.53;14.07;;;;;;;;;;6145490;23;20325;-64
2023/01/24 08:28:08;;;;;;;45.03;16.67;;;;;;;;;;6150331;23;20013;-63
2023/01/24 08:30:36;;;;;;;40.05;15.43;;;;;;;;;;6148292;23;20301;-63
2023/01/24 08:33:04;;;;;;;40.30;15.77;;;;;;;;;;6150541;23;20472;-64
2023/01/24 08:35:34;;;;;;;35.75;14.32;;;;;;;;;;6156998;23;20037;-64
2023/01/24 08:38:05;;;;;;;38.43;14.77;;;;;;;;;;6156725;23;20013;-63
2023/01/24 08:40:33;;;;;;;40.30;15.43;;;;;;;;;;6151429;23;20089;-63
2023/01/24 08:43:15;;;;;;;41.17;15.55;;;;;;;;;;6158022;23;20062;-63
2023/01/24 08:45:42;;;;;;;39.22;14.93;;;;;;;;;;6155252;23;20099;-64
2023/01/24 08:48:10;;;;;;;39.78;15.85;;;;;;;;;;6151291;23;20017;-63
2023/01/24 08:50:39;;;;;;;35.97;15.73;;;;;;;;;;6153759;23;20013;-64
2023/01/24 08:53:07;;;;;;;39.75;15.73;;;;;;;;;;6154749;23;20044;-63
2023/01/24 08:55:34;;;;;;;37.42;14.73;;;;;;;;;;6157612;23;20016;-64
2023/01/24 08:58:03;;;;;;;40.00;15.82;;;;;;;;;;6156932;23;20009;-63
2023/01/24 09:00:31;;;;;;;45.92;16.80;;;;;;;;;;6152176;23;20067;-63
2023/01/24 09:03:00;;;;;;;44.40;15.10;;;;;;;;;;6150271;23;20020;-66
2023/01/24 09:05:29;;;;;;;39.25;16.15;;;;;;;;;;6143583;23;20044;-62
2023/01/24 09:07:58;;;;;;;42.50;17.30;;;;;;;;;;6155551;23;20021;-64
2023/01/24 09:10:26;;;;;;;44.00;16.58;;;;;;;;;;6156829;23;20084;-64
2023/01/24 09:12:54;;;;;;;44.42;16.15;;;;;;;;;;6146104;23;20219;-64
2023/01/24 09:15:22;;;;;;;42.80;17.40;;;;;;;;;;6152831;23;20212;-64
2023/01/24 09:17:50;;;;;;;40.08;16.58;;;;;;;;;;6153744;23;20050;-63
2023/01/24 09:20:18;;;;;;;39.33;15.82;;;;;;;;;;6148557;23;20017;-64
2023/01/24 09:22:46;;;;;;;41.60;16.10;;;;;;;;;;6156031;23;20060;-64
2023/01/24 09:25:16;;;;;;;41.88;16.58;;;;;;;;;;6166154;23;20124;-63
2023/01/24 09:27:43;;;;;;;44.77;18.03;;;;;;;;;;6148961;23;20470;-66
2023/01/24 09:30:12;;;;;;;41.03;17.23;;;;;;;;;;6121805;23;20027;-63
2023/01/24 09:32:39;;;;;;;41.45;18.10;;;;;;;;;;6135073;23;20020;-63
2023/01/24 09:35:07;;;;;;;42.17;17.98;;;;;;;;;;6129014;23;20017;-63
2023/01/24 09:37:35;;;;;;;40.55;18.02;;;;;;;;;;6135519;23;20067;-63
2023/01/24 09:40:03;;;;;;;47.57;18.53;;;;;;;;;;6137736;23;20712;-63
2023/01/24 09:42:36;;;;;;;44.88;17.25;;;;;;;;;;6137455;23;20037;-63
2023/01/24 09:45:11;;;;;;;41.35;18.15;;;;;;;;;;6140556;23;20021;-64
2023/01/24 09:47:42;;;;;;;40.17;16.60;;;;;;;;;;6132874;23;20045;-63
2023/01/24 09:50:14;;;;;;;43.92;17.58;;;;;;;;;;6139886;23;20116;-63
2023/01/24 09:52:43;;;;;;;46.80;18.23;;;;;;;;;;6139279;23;20020;-61
2023/01/24 09:55:13;;;;;;;46.90;18.05;;;;;;;;;;6138108;23;20017;-63
2023/01/24 09:57:49;;;;;;;48.58;19.35;;;;;;;;;;6140241;23;20525;-63
2023/01/24 10:00:18;;;;;;;45.13;18.60;;;;;;;;;;6125262;23;20013;-63
2023/01/24 10:02:46;;;;;;;41.60;17.88;;;;;;;;;;6139039;23;20511;-63
2023/01/24 10:05:15;;;;;;;54.67;20.73;;;;;;;;;;6136973;23;20044;-64
2023/01/24 10:08:13;;;;;;;49.92;19.95;;;;;;;;;;6140146;23;20017;-64
2023/01/24 10:10:45;;;;;;;46.53;20.40;;;;;;;;;;6042130;23;20560;-63
2023/01/24 10:13:19;;;;;;;49.97;20.70;;;;;;;;;;6119590;23;20470;-64
2023/01/24 10:15:50;;;;;;;52.13;21.58;;;;;;;;;;6134701;23;20501;-63
2023/01/24 10:18:29;;;;;;;53.93;21.83;;;;;;;;;;6132422;23;20027;-63
2023/01/24 10:21:10;;;;;;;53.03;21.50;;;;;;;;;;6126589;23;20021;-63
2023/01/24 10:23:38;;;;;;;57.38;22.98;;;;;;;;;;6133940;23;20036;-63
2023/01/24 10:26:12;;;;;;;53.60;22.75;;;;;;;;;;6128533;23;20531;-63
2023/01/24 10:28:44;;;;;;;51.70;22.52;;;;;;;;;;6134599;23;20096;-63
2023/01/24 10:31:14;;;;;;;53.27;21.07;;;;;;;;;;6128243;23;20428;-64
2023/01/24 10:33:44;;;;;;;52.67;22.48;;;;;;;;;;6137934;23;20044;-63
2023/01/24 10:36:14;;;;;;;52.60;23.33;;;;;;;;;;6138748;23;20025;-63
2023/01/24 10:38:42;;;;;;;61.50;22.67;;;;;;;;;;6140929;23;20060;-63
2023/01/24 10:41:21;;;;;;;56.00;22.55;;;;;;;;;;6134780;23;20043;-63
2023/01/24 10:43:57;;;;;;;50.23;21.87;;;;;;;;;;6132487;23;20392;-64
2023/01/24 10:46:34;;;;;;;52.13;22.17;;;;;;;;;;6143327;23;20033;-64
2023/01/24 10:49:02;;;;;;;51.70;23.90;;;;;;;;;;6132603;23;20178;-64
2023/01/24 10:51:30;;;;;;;50.25;22.55;;;;;;;;;;6137488;23;20017;-63
2023/01/24 10:54:01;;;;;;;53.47;24.13;;;;;;;;;;6132809;23;20020;-64
2023/01/24 10:56:29;;;;;;;56.07;22.57;;;;;;;;;;6139022;23;20016;-55
2023/01/24 10:59:00;;;;;;;50.42;23.40;;;;;;;;;;6129226;23;20040;-64
2023/01/24 11:01:34;;;;;;;52.60;23.10;;;;;;;;;;6136806;23;20024;-63
2023/01/24 11:04:13;;;;;;;58.35;23.48;;;;;;;;;;6140506;23;20040;-64
2023/01/24 11:06:41;;;;;;;50.67;23.02;;;;;;;;;;6123706;23;20127;-64
2023/01/24 11:09:10;;;;;;;51.10;22.67;;;;;;;;;;6130745;23;20017;-64
2023/01/24 11:11:42;;;;;;;55.80;24.88;;;;;;;;;;6147350;23;20017;-64
2023/01/24 11:14:14;;;;;;;54.88;24.15;;;;;;;;;;6131346;23;20047;-64
2023/01/24 11:16:43;;;;;;;52.83;23.15;;;;;;;;;;6142712;23;20048;-64
2023/01/24 11:19:22;;;;;;;51.03;23.52;;;;;;;;;;6133180;23;20025;-65
2023/01/24 11:21:52;;;;;;;54.00;23.60;;;;;;;;;;6137391;23;20080;-64
2023/01/24 11:24:21;;;;;;;51.75;23.92;;;;;;;;;;6135785;23;20095;-65
2023/01/24 11:26:55;;;;;;;51.25;22.75;;;;;;;;;;6135260;23;20850;-64
2023/01/24 11:29:25;;;;;;;54.53;23.98;;;;;;;;;;6131542;23;20024;-65
2023/01/24 11:31:54;;;;;;;64.00;26.15;;;;;;;;;;6130134;23;20012;-65
2023/01/24 11:34:34;;;;;;;58.27;25.27;;;;;;;;;;6136969;23;20123;-66
2023/01/24 11:37:07;;;;;;;54.13;25.38;;;;;;;;;;6134478;23;20013;-67
2023/01/24 11:39:38;;;;;;;56.13;24.60;;;;;;;;;;6131232;23;20463;-66
2023/01/24 11:42:13;;;;;;;46.05;22.08;;;;;;;;;;6140572;23;20072;-67
2023/01/24 11:44:54;;;;;;;53.15;22.40;;;;;;;;;;6133382;23;20028;-67
2023/01/24 11:47:24;;;;;;;53.80;22.87;;;;;;;;;;6135742;23;20020;-67
2023/01/24 11:50:17;;;;;;;47.53;21.60;;;;;;;;;;6126331;23;20028;-66
2023/01/24 11:52:51;;;;;;;48.55;22.02;;;;;;;;;;6120018;23;20025;-66
2023/01/24 11:55:25;;;;;;;46.42;22.15;;;;;;;;;;6136830;23;20448;-66
2023/01/24 11:57:58;;;;;;;44.97;20.67;;;;;;;;;;6147831;23;20827;-67
2023/01/24 12:00:34;;;;;;;54.07;23.27;;;;;;;;;;6128183;23;20020;-68
2023/01/24 12:03:21;;;;;;;45.75;21.42;;;;;;;;;;6135690;23;20028;-66
2023/01/24 12:05:56;;;;;;;55.28;23.63;;;;;;;;;;6142438;23;20028;-66
2023/01/24 12:08:31;;;;;;;50.67;23.30;;;;;;;;;;6134096;23;20738;-67
2023/01/24 12:11:01;;;;;;;51.50;22.60;;;;;;;;;;6135543;23;20016;-67
2023/01/24 12:13:49;;;;;;;49.27;22.93;;;;;;;;;;6140688;23;20115;-68
2023/01/24 12:16:22;;;;;;;51.38;23.42;;;;;;;;;;6140104;23;20013;-68
2023/01/24 12:18:57;;;;;;;53.10;23.85;;;;;;;;;;6142026;23;20065;-69
2023/01/24 12:21:25;;;;;;;50.50;22.52;;;;;;;;;;6143245;23;20099;-69
2023/01/24 12:23:55;;;;;;;48.92;23.38;;;;;;;;;;6138696;23;20013;-70
2023/01/24 12:26:24;;;;;;;48.50;21.87;;;;;;;;;;6138328;23;20091;-70
2023/01/24 12:28:58;;;;;;;47.60;22.17;;;;;;;;;;6132984;23;20031;-70
2023/01/24 12:31:33;;;;;;;49.45;21.13;;;;;;;;;;6141204;23;20021;-69
2023/01/24 12:34:04;;;;;;;47.17;20.45;;;;;;;;;;6142946;23;20021;-72
2023/01/24 12:36:38;;;;;;;44.60;22.10;;;;;;;;;;6136147;23;20869;-72
2023/01/24 12:39:12;;;;;;;45.07;20.37;;;;;;;;;;6128236;23;20507;-72
2023/01/24 12:41:39;;;;;;;48.38;20.88;;;;;;;;;;6145350;23;20044;-72
2023/01/24 12:44:16;;;;;;;39.72;20.17;;;;;;;;;;6140766;23;20095;-72
2023/01/24 12:46:49;;;;;;;48.40;20.45;;;;;;;;;;6134173;23;20021;-71
2023/01/24 12:49:21;;;;;;;48.80;22.23;;;;;;;;;;6126542;23;20436;-70
2023/01/24 12:51:54;;;;;;;47.33;19.83;;;;;;;;;;6142857;23;20079;-68
2023/01/24 12:54:29;;;;;;;36.97;17.77;;;;;;;;;;6137572;23;20807;-70
2023/01/24 12:57:01;;;;;;;42.40;17.58;;;;;;;;;;6138901;23;20092;-71
2023/01/24 12:59:30;;;;;;;44.15;18.52;;;;;;;;;;6129789;23;20461;-70
2023/01/24 13:02:13;;;;;;;41.00;18.52;;;;;;;;;;6135977;23;20036;-69
2023/01/24 13:04:48;;;;;;;39.47;17.83;;;;;;;;;;6144641;23;20116;-68
2023/01/24 13:07:23;;;;;;;34.85;15.98;;;;;;;;;;6134536;23;20072;-67
2023/01/24 13:09:54;;;;;;;24.80;11.10;;;;;;;;;;6132708;23;20017;-68
2023/01/24 13:12:25;;;;;;;24.83;10.52;;;;;;;;;;6138113;23;20309;-68
2023/01/24 13:14:55;;;;;;;23.50;10.15;;;;;;;;;;6140387;23;20476;-67
2023/01/24 13:17:39;;;;;;;22.33;9.27;;;;;;;;;;6128510;23;20436;-67
2023/01/24 13:20:22;;;;;;;20.35;9.15;;;;;;;;;;6134970;23;20172;-66
2023/01/24 13:23:00;;;;;;;20.23;9.10;;;;;;;;;;6140405;23;20469;-65
2023/01/24 13:25:36;;;;;;;20.45;8.27;;;;;;;;;;6134509;23;20017;-64
2023/01/24 13:28:08;;;;;;;20.35;8.82;;;;;;;;;;6137770;23;20512;-65
2023/01/24 13:30:42;;;;;;;20.07;8.83;;;;;;;;;;6129892;23;20712;-64
2023/01/24 13:33:13;;;;;;;17.73;8.38;;;;;;;;;;6126117;23;20518;-65
2023/01/24 13:35:46;;;;;;;22.58;9.93;;;;;;;;;;6136543;23;20025;-65
2023/01/24 13:38:22;;;;;;;23.23;9.48;;;;;;;;;;6134995;23;20017;-65
2023/01/24 13:40:58;;;;;;;22.52;9.32;;;;;;;;;;6122511;23;20021;-65
2023/01/24 13:43:53;;;;;;;20.80;8.93;;;;;;;;;;6129645;23;20021;-65
2023/01/24 13:46:42;;;;;;;24.65;9.90;;;;;;;;;;6142831;23;20451;-66
2023/01/24 13:49:17;;;;;;;23.70;10.48;;;;;;;;;;6130890;23;20021;-61
2023/01/24 13:51:48;;;;;;;27.08;10.70;;;;;;;;;;6134567;23;20350;-64
2023/01/24 13:54:33;;;;;;;18.30;8.80;;;;;;;;;;6140993;23;20021;-66
2023/01/24 13:57:26;;;;;;;20.40;7.83;;;;;;;;;;6132257;23;20017;-64
2023/01/24 14:00:18;;;;;;;18.73;8.35;;;;;;;;;;6116046;23;20025;-65
2023/01/24 14:03:01;;;;;;;19.10;7.70;;;;;;;;;;6107658;23;20056;-66
2023/01/24 14:05:37;;;;;;;20.00;8.50;;;;;;;;;;6137321;23;20045;-65
2023/01/24 14:08:14;;;;;;;19.63;8.07;;;;;;;;;;6136239;23;20024;-66
2023/01/24 14:10:45;;;;;;;16.77;6.97;;;;;;;;;;6130161;23;20013;-65
2023/01/24 14:13:29;;;;;;;18.73;7.43;;;;;;;;;;6126334;23;20525;-66
2023/01/24 14:15:57;;;;;;;20.25;7.65;;;;;;;;;;6135399;23;20017;-65
2023/01/24 14:18:46;;;;;;;16.17;6.80;;;;;;;;;;6134957;23;20076;-65
2023/01/24 14:21:26;;;;;;;16.67;7.40;;;;;;;;;;6133470;23;20025;-71
2023/01/24 14:23:57;;;;;;;18.83;8.03;;;;;;;;;;6137338;23;20045;-65
2023/01/24 14:26:30;;;;;;;21.65;7.80;;;;;;;;;;6133658;23;20411;-64
2023/01/24 14:29:00;;;;;;;18.40;7.38;;;;;;;;;;6140396;23;20031;-65
2023/01/24 14:31:31;;;;;;;17.63;6.70;;;;;;;;;;6134018;23;20427;-65
2023/01/24 14:34:05;;;;;;;18.08;7.60;;;;;;;;;;6139642;23;20027;-65
2023/01/24 14:36:33;;;;;;;18.70;7.57;;;;;;;;;;6133533;23;20245;-64
2023/01/24 14:39:28;;;;;;;19.77;8.10;;;;;;;;;;6131180;23;20091;-65
2023/01/24 14:41:57;;;;;;;20.77;8.60;;;;;;;;;;6096948;23;20017;-64
2023/01/24 14:44:26;;;;;;;25.05;9.18;;;;;;;;;;6144793;23;20071;-63
2023/01/24 14:46:56;;;;;;;22.55;8.70;;;;;;;;;;6134451;23;20029;-63
2023/01/24 14:49:29;;;;;;;19.10;7.97;;;;;;;;;;6136209;23;20024;-65
2023/01/24 14:51:57;;;;;;;20.95;8.38;;;;;;;;;;6127886;23;20079;-64
2023/01/24 14:54:44;;;;;;;17.05;6.80;;;;;;;;;;6135733;23;20540;-63
2023/01/24 14:57:21;;;;;;;16.63;5.28;;;;;;;;;;6141742;23;20096;-65
2023/01/24 14:59:59;;;;;;;13.68;5.05;;;;;;;;;;6122227;23;20112;-58
2023/01/24 15:02:27;;;;;;;14.90;5.67;;;;;;;;;;6140896;23;20144;-62
2023/01/24 15:04:59;;;;;;;14.20;5.75;;;;;;;;;;6141546;23;20486;-64
2023/01/24 15:07:30;;;;;;;14.65;5.88;;;;;;;;;;6136647;23;20020;-65
2023/01/24 15:09:58;;;;;;;18.92;6.25;;;;;;;;;;6132416;23;20025;-63
2023/01/24 15:12:29;;;;;;;15.77;6.10;;;;;;;;;;6140466;23;20470;-64